createdAt,value
2022-09-24T00:04:12.077Z,69.72
2022-09-24T00:09:16.632Z,70.03
2022-09-24T00:14:19.657Z,70.05
2022-09-24T00:19:23.530Z,69.97
2022-09-24T00:24:47.935Z,70.22
2022-09-24T00:29:50.536Z,70.39
2022-09-24T00:34:54.857Z,70.61
2022-09-24T00:39:57.528Z,70.53
2022-09-24T00:45:00.969Z,70.63
2022-09-24T00:50:14.165Z,70.86
2022-09-24T00:55:17.331Z,70.97
2022-09-24T01:00:20.136Z,70.90
2022-09-24T01:05:24.040Z,70.76
2022-09-24T01:10:51.111Z,70.74
2022-09-24T01:15:58.375Z,70.71
2022-09-24T01:21:12.849Z,70.57
2022-09-24T01:26:26.201Z,70.59
2022-09-24T01:31:33.336Z,70.55
2022-09-24T01:36:37.670Z,70.66
2022-09-24T01:41:40.648Z,70.71
2022-09-24T01:46:44.637Z,70.76
2022-09-24T01:51:49.557Z,71.00
2022-09-24T01:56:55.492Z,70.94
2022-09-24T02:02:05.605Z,70.97
2022-09-24T02:07:13.402Z,70.99
2022-09-24T02:12:17.726Z,71.11
2022-09-24T02:17:23.174Z,71.45
2022-09-24T02:22:26.520Z,71.09
2022-09-24T02:27:29.542Z,71.27
2022-09-24T02:32:35.661Z,71.35
2022-09-24T02:37:40.918Z,71.21
2022-09-24T02:42:43.856Z,71.18
2022-09-24T02:47:48.407Z,71.43
2022-09-24T02:52:50.980Z,71.30
2022-09-24T02:57:53.815Z,71.44
2022-09-24T03:02:57.935Z,71.51
2022-09-24T03:08:00.539Z,71.37
2022-09-24T03:13:03.088Z,71.28
2022-09-24T03:18:07.489Z,71.43
2022-09-24T03:23:10.060Z,71.58
2022-09-24T03:28:12.671Z,71.40
2022-09-24T03:33:16.613Z,71.63
2022-09-24T03:38:19.219Z,71.96
2022-09-24T03:43:22.053Z,71.91
2022-09-24T03:48:26.773Z,72.01
2022-09-24T03:53:29.339Z,71.98
2022-09-24T03:58:32.145Z,72.03
2022-09-24T04:03:36.643Z,72.42
2022-09-24T04:08:39.213Z,72.38
2022-09-24T04:13:41.770Z,72.44
2022-09-24T04:18:48.694Z,72.32
2022-09-24T04:23:51.326Z,72.33
2022-09-24T04:28:53.903Z,72.31
2022-09-24T04:33:57.824Z,72.68
2022-09-24T04:39:00.470Z,72.58
2022-09-24T04:44:03.778Z,72.72
2022-09-24T04:49:09.591Z,72.97
2022-09-24T04:54:12.470Z,72.98
2022-09-24T04:59:15.050Z,73.00
2022-09-24T05:04:19.056Z,73.05
2022-09-24T05:09:21.639Z,72.87
2022-09-24T05:14:24.220Z,73.02
2022-09-24T05:19:28.136Z,72.89
2022-09-24T05:24:30.815Z,72.94
2022-09-24T05:29:33.493Z,73.15
2022-09-24T05:34:37.473Z,72.79
2022-09-24T05:39:40.183Z,72.82
2022-09-24T05:44:44.810Z,72.82
2022-09-24T05:49:50.358Z,72.93
2022-09-24T05:54:57.178Z,73.02
2022-09-24T05:59:59.747Z,72.72
2022-09-24T06:05:03.725Z,72.50
2022-09-24T06:10:08.188Z,72.24
2022-09-24T06:15:12.394Z,72.26
2022-09-24T06:20:16.444Z,71.94
2022-09-24T06:25:19.046Z,71.87
2022-09-24T06:30:21.622Z,71.71
2022-09-24T06:35:25.568Z,71.73
2022-09-24T06:40:31.366Z,71.77
2022-09-24T06:45:38.547Z,71.94
2022-09-24T06:50:45.061Z,71.81
2022-09-24T06:55:47.787Z,71.61
2022-09-24T07:00:54.522Z,71.42
2022-09-24T07:06:01.694Z,71.25
2022-09-24T07:11:04.445Z,70.83
2022-09-24T07:16:07.507Z,70.76
2022-09-24T07:21:11.628Z,70.59
2022-09-24T07:26:14.295Z,69.90
2022-09-24T07:31:17.738Z,69.87
2022-09-24T07:36:21.818Z,69.56
2022-09-24T07:41:24.777Z,69.21
2022-09-24T07:46:27.654Z,69.00
2022-09-24T07:51:31.685Z,69.09
2022-09-24T07:56:34.938Z,69.01
2022-09-24T08:01:37.814Z,68.87
2022-09-24T08:06:47.262Z,68.83
2022-09-24T08:11:50.939Z,68.61
2022-09-24T08:16:53.639Z,68.60
2022-09-24T08:21:58.682Z,68.71
2022-09-24T08:27:04.583Z,68.51
2022-09-24T08:32:07.549Z,68.34
2022-09-24T08:37:11.442Z,68.21
2022-09-24T08:42:36.456Z,67.96
2022-09-24T08:47:45.683Z,67.70
2022-09-24T08:53:01.370Z,67.68
2022-09-24T08:58:22.673Z,67.73
2022-09-24T09:03:32.734Z,67.25
2022-09-24T09:09:01.689Z,67.13
2022-09-24T09:14:10.841Z,66.35
2022-09-24T09:19:15.505Z,66.06
2022-09-24T09:24:23.253Z,65.66
2022-09-24T09:29:28.185Z,65.75
2022-09-24T09:34:42.034Z,66.10
2022-09-24T09:39:50.828Z,66.35
2022-09-24T09:44:53.603Z,66.13
2022-09-24T09:49:58.842Z,65.97
2022-09-24T09:55:05.983Z,65.86
2022-09-24T10:00:26.606Z,65.96
2022-09-24T10:05:29.546Z,65.95
2022-09-24T10:10:33.609Z,65.52
2022-09-24T10:15:45.350Z,65.35
2022-09-24T10:20:49.464Z,64.43
2022-09-24T10:25:59.646Z,63.19
2022-09-24T10:31:07.188Z,62.74
2022-09-24T10:36:16.087Z,63.03
2022-09-24T10:41:27.121Z,62.42
2022-09-24T10:47:01.705Z,62.85
2022-09-24T10:52:10.307Z,63.36
2022-09-24T10:57:25.266Z,62.20
2022-09-24T11:02:59.826Z,60.91
2022-09-24T11:08:18.798Z,59.61
2022-09-24T11:13:28.028Z,57.76
2022-09-24T11:18:38.836Z,47.72
2022-09-24T11:23:54.402Z,39.90
2022-09-24T11:29:10.610Z,39.92
2022-09-24T11:34:30.534Z,41.62
2022-09-24T11:39:44.606Z,41.73
2022-09-24T11:44:58.143Z,40.56
2022-09-24T11:50:13.317Z,46.20
2022-09-24T11:55:21.142Z,51.95
2022-09-24T12:00:29.684Z,44.77
2022-09-24T12:05:35.321Z,43.14
2022-09-24T12:10:40.247Z,42.78
2022-09-24T12:15:49.081Z,36.23
2022-09-24T12:20:54.269Z,31.66
2022-09-24T12:25:59.151Z,40.24
2022-09-24T12:31:32.737Z,46.23
2022-09-24T12:36:56.944Z,50.45
2022-09-24T12:42:02.825Z,52.34
2022-09-24T12:47:16.306Z,53.92
2022-09-24T12:52:29.711Z,53.80
2022-09-24T12:57:36.077Z,53.65
2022-09-24T13:02:47.867Z,53.34
2022-09-24T13:07:59.659Z,53.21
2022-09-24T13:13:03.010Z,50.62
2022-09-24T13:18:22.287Z,49.88
2022-09-24T13:23:45.218Z,46.24
2022-09-24T13:28:55.379Z,44.97
2022-09-24T13:34:02.698Z,45.23
2022-09-24T13:39:11.553Z,45.63
2022-09-24T13:44:18.314Z,45.13
2022-09-24T13:49:23.142Z,44.63
2022-09-24T13:54:30.134Z,45.42
2022-09-24T13:59:32.782Z,45.27
2022-09-24T14:04:41.987Z,44.83
2022-09-24T14:09:47.610Z,44.84
2022-09-24T14:14:57.345Z,44.93
2022-09-24T14:20:01.256Z,45.30
2022-09-24T14:25:08.600Z,46.74
2022-09-24T14:30:20.075Z,47.67
2022-09-24T14:35:29.997Z,48.14
2022-09-24T14:40:40.433Z,48.09
2022-09-24T14:45:43.313Z,47.74
2022-09-24T14:50:47.517Z,45.69
2022-09-24T14:55:50.782Z,45.43
2022-09-24T15:00:56.034Z,43.91
2022-09-24T15:06:18.058Z,42.68
2022-09-24T15:11:21.270Z,41.71
2022-09-24T15:16:30.353Z,37.32
2022-09-24T15:21:34.913Z,34.43
2022-09-24T15:26:40.467Z,33.81
2022-09-24T15:31:43.423Z,33.05
2022-09-24T15:36:49.415Z,33.25
2022-09-24T15:41:52.240Z,38.72
2022-09-24T15:46:55.023Z,43.91
2022-09-24T15:52:01.917Z,46.51
2022-09-24T15:57:04.832Z,48.39
2022-09-24T16:02:15.918Z,49.35
2022-09-24T16:07:19.962Z,50.51
2022-09-24T16:12:27.823Z,50.70
2022-09-24T16:17:30.780Z,50.96
2022-09-24T16:22:38.444Z,51.62
2022-09-24T16:27:41.220Z,51.83
2022-09-24T16:32:44.283Z,52.43
2022-09-24T16:37:48.313Z,52.72
2022-09-24T16:42:50.990Z,53.13
2022-09-24T16:47:53.615Z,53.53
2022-09-24T16:52:57.639Z,53.79
2022-09-24T16:58:00.659Z,54.04
2022-09-24T17:03:03.468Z,54.25
2022-09-24T17:08:07.532Z,54.69
2022-09-24T17:13:10.318Z,54.60
2022-09-24T17:18:13.034Z,55.08
2022-09-24T17:23:17.198Z,55.44
2022-09-24T17:28:19.864Z,55.77
2022-09-24T17:33:42.360Z,55.91
2022-09-24T17:38:46.819Z,55.76
2022-09-24T17:43:49.581Z,56.46
2022-09-24T17:48:54.309Z,56.76
2022-09-24T17:53:58.443Z,57.00
2022-09-24T17:59:01.426Z,57.38
2022-09-24T18:04:05.926Z,57.61
2022-09-24T18:09:11.354Z,57.91
2022-09-24T18:14:17.052Z,57.82
2022-09-24T18:19:19.914Z,58.26
2022-09-24T18:24:24.252Z,58.48
2022-09-24T18:29:27.604Z,58.95
2022-09-24T18:34:30.821Z,59.32
2022-09-24T18:39:35.017Z,59.42
2022-09-24T18:44:37.781Z,59.65
2022-09-24T18:49:40.593Z,59.93
2022-09-24T18:54:44.787Z,60.38
2022-09-24T18:59:48.694Z,60.52
2022-09-24T19:04:51.363Z,60.89
2022-09-24T19:09:55.650Z,60.92
2022-09-24T19:15:00.298Z,61.48
2022-09-24T19:20:03.378Z,61.75
2022-09-24T19:25:08.505Z,62.08
2022-09-24T19:30:12.424Z,62.39
2022-09-24T19:35:15.199Z,62.47
2022-09-24T19:40:19.653Z,62.65
2022-09-24T19:45:22.391Z,63.03
2022-09-24T19:50:25.012Z,63.22
2022-09-24T19:55:30.485Z,63.33
2022-09-24T20:00:33.476Z,63.40
2022-09-24T20:05:36.314Z,63.45
2022-09-24T20:10:40.903Z,63.73
2022-09-24T20:15:43.985Z,64.03
2022-09-24T20:20:46.764Z,64.27
2022-09-24T20:26:12.640Z,64.26
2022-09-24T20:31:20.781Z,64.65
2022-09-24T20:36:24.913Z,64.41
2022-09-24T20:41:29.439Z,64.74
2022-09-24T20:46:32.249Z,64.76
2022-09-24T20:51:35.118Z,64.73
2022-09-24T20:56:39.265Z,64.86
2022-09-24T21:01:42.797Z,64.90
2022-09-24T21:06:46.176Z,65.54
2022-09-24T21:11:50.484Z,65.82
2022-09-24T21:16:55.024Z,65.93
2022-09-24T21:21:59.444Z,66.31
2022-09-24T21:27:05.222Z,66.70
2022-09-24T21:32:07.838Z,66.74
2022-09-24T21:37:13.287Z,67.07
2022-09-24T21:42:19.769Z,67.40
2022-09-24T21:47:22.451Z,67.69
2022-09-24T21:52:26.617Z,67.93
2022-09-24T21:57:30.777Z,68.34
2022-09-24T22:02:33.524Z,68.59
2022-09-24T22:07:36.546Z,68.72
2022-09-24T22:12:40.648Z,68.98
2022-09-24T22:17:43.376Z,69.38
2022-09-24T22:22:46.044Z,69.48
2022-09-24T22:27:49.986Z,69.44
2022-09-24T22:32:52.582Z,69.78
2022-09-24T22:37:55.744Z,70.16
2022-09-24T22:42:59.830Z,71.61
2022-09-24T22:48:03.371Z,71.08
2022-09-24T22:53:05.982Z,70.49
2022-09-24T22:58:09.985Z,70.21
2022-09-24T23:03:12.555Z,70.54
2022-09-24T23:08:15.186Z,70.65
2022-09-24T23:13:19.119Z,70.75
2022-09-24T23:18:21.703Z,70.78
2022-09-24T23:23:24.299Z,70.94
2022-09-24T23:28:29.595Z,71.06
2022-09-24T23:33:33.570Z,71.20
2022-09-24T23:38:36.533Z,71.12
2022-09-24T23:43:41.054Z,71.48
2022-09-24T23:48:43.810Z,71.38
2022-09-24T23:53:46.398Z,71.54
2022-09-24T23:58:50.351Z,71.63
